Time;durP1;ratioP1;P1;durP2;ratioP2;P2;SDS_P1;SDS_P2;PMS_P1;PMS_P2;Temp;Humidity;BMP_temperature;BMP_pressure;BME280_temperature;BME280_humidity;BME280_pressure;Samples;Min_cycle;Max_cycle;Signal;HPM_P1;HPM_P2
2023/09/30 00:00:57;;;;;;;22.13;9.02;;;16.00;99.90;;;;;;4973054;28;20119;-77
2023/09/30 00:03:23;;;;;;;25.05;9.45;;;16.00;99.90;;;;;;4975006;28;20030;-78
2023/09/30 00:05:49;;;;;;;22.23;9.10;;;16.00;99.90;;;;;;4976026;28;20038;-78
2023/09/30 00:08:15;;;;;;;21.77;8.65;;;16.00;99.90;;;;;;4976307;28;20092;-78
2023/09/30 00:10:41;;;;;;;19.48;8.48;;;16.00;99.90;;;;;;4975231;28;20046;-78
2023/09/30 00:13:12;;;;;;;22.05;8.48;;;16.00;99.90;;;;;;4978034;28;20037;-78
2023/09/30 00:15:38;;;;;;;22.85;8.77;;;16.00;99.90;;;;;;4960705;28;20077;-77
2023/09/30 00:18:05;;;;;;;24.13;9.57;;;16.00;99.90;;;;;;4972950;28;20022;-79
2023/09/30 00:20:31;;;;;;;26.35;9.48;;;16.00;99.90;;;;;;4973034;28;20038;-77
2023/09/30 00:22:57;;;;;;;24.80;9.30;;;16.00;99.90;;;;;;4978258;28;20038;-80
2023/09/30 00:25:23;;;;;;;23.40;8.38;;;16.10;99.90;;;;;;4979951;28;20034;-79
2023/09/30 00:27:49;;;;;;;19.25;7.97;;;16.10;99.90;;;;;;4978869;28;20082;-79
2023/09/30 00:30:15;;;;;;;21.60;8.80;;;16.00;99.90;;;;;;4977414;28;20046;-80
2023/09/30 00:32:42;;;;;;;24.85;8.05;;;16.00;99.90;;;;;;4964413;28;20058;-78
2023/09/30 00:35:11;;;;;;;21.92;8.65;;;16.00;99.90;;;;;;4987310;28;20085;-79
2023/09/30 00:37:41;;;;;;;24.40;8.98;;;16.10;99.90;;;;;;4970397;28;20412;-79
2023/09/30 00:40:12;;;;;;;20.33;8.35;;;16.10;99.90;;;;;;4967536;28;20042;-79
2023/09/30 00:42:38;;;;;;;18.48;7.38;;;16.00;99.90;;;;;;4980893;28;20097;-79
2023/09/30 00:45:05;;;;;;;19.52;7.93;;;16.10;99.90;;;;;;4965099;28;20043;-79
2023/09/30 00:47:31;;;;;;;16.50;7.13;;;16.10;99.90;;;;;;4981788;28;20065;-79
2023/09/30 00:49:57;;;;;;;19.30;7.30;;;16.10;99.90;;;;;;4956430;28;20039;-80
2023/09/30 00:52:23;;;;;;;19.00;7.95;;;16.10;99.90;;;;;;4979972;28;20026;-78
2023/09/30 00:54:50;;;;;;;24.58;8.73;;;16.10;99.90;;;;;;4964708;28;20031;-79
2023/09/30 00:57:18;;;;;;;21.00;7.97;;;16.10;99.90;;;;;;4979158;28;20027;-81
2023/09/30 00:59:44;;;;;;;20.20;7.78;;;16.10;99.90;;;;;;4968517;28;20067;-79
2023/09/30 01:02:11;;;;;;;19.65;7.97;;;16.10;99.90;;;;;;4959766;28;20074;-82
2023/09/30 01:04:38;;;;;;;20.25;7.40;;;16.20;99.90;;;;;;4963394;28;20074;-80
2023/09/30 01:07:05;;;;;;;19.73;8.07;;;16.10;99.90;;;;;;4946195;28;20049;-79
2023/09/30 01:09:31;;;;;;;16.85;7.38;;;16.20;99.90;;;;;;4978332;28;20048;-80
2023/09/30 01:11:58;;;;;;;21.92;7.80;;;16.20;99.90;;;;;;4965525;28;20050;-80
2023/09/30 01:14:31;;;;;;;21.40;8.02;;;16.20;99.90;;;;;;4979174;28;20038;-79
2023/09/30 01:16:57;;;;;;;18.27;6.97;;;16.10;99.90;;;;;;4972472;28;20070;-79
2023/09/30 01:19:25;;;;;;;20.00;7.55;;;16.10;99.90;;;;;;4966000;28;20057;-78
2023/09/30 01:21:56;;;;;;;17.92;6.88;;;16.10;99.90;;;;;;4960823;28;20679;-80
2023/09/30 01:24:22;;;;;;;20.40;7.65;;;16.20;99.90;;;;;;4964400;28;20039;-80
2023/09/30 01:26:48;;;;;;;15.90;7.13;;;16.20;99.90;;;;;;4979909;28;20174;-81
2023/09/30 01:29:14;;;;;;;16.35;7.05;;;16.20;99.90;;;;;;4981353;28;20054;-80
2023/09/30 01:31:40;;;;;;;21.05;7.57;;;16.20;99.90;;;;;;4959654;28;20034;-81
2023/09/30 01:34:06;;;;;;;21.35;7.82;;;16.20;99.90;;;;;;4961522;28;20081;-80
2023/09/30 01:36:32;;;;;;;18.10;7.47;;;16.20;99.90;;;;;;4972374;28;20041;-80
2023/09/30 01:38:58;;;;;;;18.80;7.28;;;16.20;99.90;;;;;;4970959;28;20027;-80
2023/09/30 01:41:24;;;;;;;16.40;6.70;;;16.20;99.90;;;;;;4973707;28;20045;-81
2023/09/30 01:43:49;;;;;;;14.85;6.60;;;16.20;99.90;;;;;;4972737;28;20070;-81
2023/09/30 01:46:15;;;;;;;18.00;7.25;;;16.20;99.90;;;;;;4964847;28;20120;-79
2023/09/30 01:48:41;;;;;;;15.27;7.00;;;16.20;99.90;;;;;;4955291;28;20115;-78
2023/09/30 01:51:07;;;;;;;14.75;6.53;;;16.20;99.90;;;;;;4972816;28;20504;-80
2023/09/30 01:53:33;;;;;;;18.45;7.63;;;16.20;99.90;;;;;;4974145;28;20059;-78
2023/09/30 01:55:59;;;;;;;16.83;6.93;;;16.20;99.90;;;;;;4962612;28;20053;-78
2023/09/30 01:58:28;;;;;;;19.42;7.95;;;16.20;99.90;;;;;;4962224;28;20749;-79
2023/09/30 02:00:54;;;;;;;19.33;7.63;;;16.20;99.90;;;;;;4956944;28;20023;-78
2023/09/30 02:03:20;;;;;;;15.73;6.90;;;16.20;99.90;;;;;;4953295;28;20032;-78
2023/09/30 02:05:46;;;;;;;17.85;7.40;;;16.30;99.90;;;;;;4972516;28;20027;-78
2023/09/30 02:08:31;;;;;;;17.55;7.05;;;16.30;99.90;;;;;;4978744;28;20100;-78
2023/09/30 02:10:57;;;;;;;18.40;6.80;;;16.30;99.90;;;;;;4974356;28;20030;-78
2023/09/30 02:13:23;;;;;;;16.65;6.70;;;16.20;99.90;;;;;;4958883;28;20026;-79
2023/09/30 02:15:48;;;;;;;14.00;6.30;;;16.20;99.90;;;;;;4978622;28;20543;-78
2023/09/30 02:18:14;;;;;;;18.35;6.93;;;16.20;99.90;;;;;;4982708;28;20086;-79
2023/09/30 02:20:40;;;;;;;21.30;7.97;;;16.20;99.90;;;;;;4964348;28;20093;-79
2023/09/30 02:23:09;;;;;;;15.50;7.10;;;16.20;99.90;;;;;;4980764;28;20054;-79
2023/09/30 02:25:36;;;;;;;16.30;6.90;;;16.20;99.90;;;;;;4974000;28;20039;-80
2023/09/30 02:28:03;;;;;;;18.70;7.40;;;16.20;99.90;;;;;;4983937;28;20097;-80
2023/09/30 02:30:28;;;;;;;21.70;7.97;;;16.10;99.90;;;;;;4981793;28;20184;-80
2023/09/30 02:32:56;;;;;;;18.40;7.30;;;16.00;99.90;;;;;;4976845;28;20098;-79
2023/09/30 02:35:22;;;;;;;19.52;7.40;;;15.90;99.90;;;;;;4972527;28;20039;-82
2023/09/30 02:37:49;;;;;;;14.55;6.55;;;15.90;99.90;;;;;;4975614;28;20157;-81
2023/09/30 02:40:16;;;;;;;14.85;6.40;;;15.80;99.90;;;;;;4975803;28;20038;-80
2023/09/30 02:42:43;;;;;;;12.13;5.40;;;15.70;99.90;;;;;;4976731;28;20045;-79
2023/09/30 02:45:10;;;;;;;10.70;4.40;;;15.70;99.90;;;;;;4979178;28;20097;-80
2023/09/30 02:47:37;;;;;;;9.80;4.45;;;15.60;99.90;;;;;;4974172;28;20473;-79
2023/09/30 02:50:05;;;;;;;8.95;4.20;;;15.50;99.90;;;;;;4979788;28;20034;-81
2023/09/30 02:52:31;;;;;;;10.70;3.60;;;15.40;99.90;;;;;;4977797;28;20069;-80
2023/09/30 02:54:58;;;;;;;7.22;2.97;;;15.40;99.90;;;;;;4977927;28;20054;-80
2023/09/30 02:57:24;;;;;;;8.75;3.50;;;15.30;99.90;;;;;;4982094;28;20128;-81
2023/09/30 02:59:51;;;;;;;5.95;2.70;;;15.20;99.90;;;;;;4979511;28;20499;-81
2023/09/30 03:02:27;;;;;;;12.43;3.70;;;15.20;99.90;;;;;;4966735;28;20798;-81
2023/09/30 03:05:03;;;;;;;8.10;3.38;;;15.20;99.90;;;;;;4977493;28;20030;-80
2023/09/30 03:07:33;;;;;;;6.63;2.65;;;15.10;99.90;;;;;;4964913;28;20031;-81
2023/09/30 03:10:05;;;;;;;8.80;2.70;;;15.10;99.90;;;;;;4956317;28;20042;-80
2023/09/30 03:12:49;;;;;;;6.32;2.80;;;15.00;99.90;;;;;;4975049;28;20038;-82
2023/09/30 03:15:35;;;;;;;5.90;2.63;;;15.00;99.90;;;;;;4964475;28;20031;-82
2023/09/30 03:18:03;;;;;;;6.05;2.60;;;14.90;99.90;;;;;;4973685;28;20034;-81
2023/09/30 03:20:33;;;;;;;5.03;2.10;;;14.90;99.90;;;;;;4951710;28;20031;-80
2023/09/30 03:23:10;;;;;;;5.07;2.53;;;14.80;99.90;;;;;;4981902;28;20027;-83
2023/09/30 03:25:42;;;;;;;7.97;2.00;;;14.70;99.90;;;;;;4975965;28;20011;-81
2023/09/30 03:28:07;;;;;;;4.65;2.35;;;14.70;99.90;;;;;;4986260;28;20495;-83
2023/09/30 03:30:34;;;;;;;4.88;2.47;;;14.70;99.90;;;;;;4980969;28;20027;-80
2023/09/30 03:33:01;;;;;;;4.40;2.00;;;14.60;99.90;;;;;;4971524;28;20042;-81
2023/09/30 03:35:27;;;;;;;4.63;2.03;;;14.60;99.90;;;;;;4981277;28;20051;-81
2023/09/30 03:37:52;;;;;;;3.88;2.10;;;14.60;99.90;;;;;;4982148;28;20030;-79
2023/09/30 03:40:18;;;;;;;5.40;2.03;;;14.60;99.90;;;;;;4987791;28;20054;-82
2023/09/30 03:42:46;;;;;;;3.53;2.05;;;14.50;99.90;;;;;;4963958;28;20132;-80
2023/09/30 03:45:13;;;;;;;4.32;1.67;;;14.50;99.90;;;;;;4967743;28;20038;-80
2023/09/30 03:47:41;;;;;;;4.82;1.90;;;14.50;99.90;;;;;;4986542;28;20117;-80
2023/09/30 03:50:14;;;;;;;3.00;1.77;;;14.50;99.90;;;;;;4966760;28;20042;-80
2023/09/30 03:52:44;;;;;;;4.22;2.10;;;14.40;99.90;;;;;;4976405;28;20046;-80
2023/09/30 03:55:12;;;;;;;3.47;1.90;;;14.40;99.90;;;;;;4981128;28;20031;-80
2023/09/30 03:57:38;;;;;;;4.78;1.75;;;14.30;99.90;;;;;;4979480;28;20031;-80
2023/09/30 04:00:07;;;;;;;3.88;1.98;;;14.30;99.90;;;;;;4984632;28;20027;-80
2023/09/30 04:02:38;;;;;;;3.65;1.90;;;14.20;99.90;;;;;;4985047;28;20045;-80
2023/09/30 04:05:05;;;;;;;5.28;2.10;;;14.30;99.90;;;;;;4972275;28;20031;-79
2023/09/30 04:07:32;;;;;;;3.03;2.00;;;14.20;99.90;;;;;;4979327;28;20061;-79
2023/09/30 04:10:00;;;;;;;3.25;1.80;;;14.20;99.90;;;;;;4973701;28;20086;-81
2023/09/30 04:12:45;;;;;;;3.47;2.03;;;14.20;99.90;;;;;;4977643;28;20563;-80
2023/09/30 04:15:12;;;;;;;5.07;2.20;;;14.20;99.90;;;;;;4980596;28;20043;-79
2023/09/30 04:17:38;;;;;;;2.03;1.25;;;14.20;99.90;;;;;;4983607;28;20041;-79
2023/09/30 04:20:10;;;;;;;4.30;2.22;;;14.20;99.90;;;;;;4978940;28;20095;-79
2023/09/30 04:22:37;;;;;;;5.20;2.08;;;14.20;99.90;;;;;;4964540;28;20046;-78
2023/09/30 04:25:08;;;;;;;4.90;2.28;;;14.20;99.90;;;;;;4974590;28;20043;-79
2023/09/30 04:27:35;;;;;;;3.15;1.67;;;14.20;99.90;;;;;;4977819;28;20391;-79
2023/09/30 04:30:07;;;;;;;3.75;2.13;;;14.20;99.90;;;;;;4976590;28;20086;-80
2023/09/30 04:32:33;;;;;;;4.70;1.92;;;14.20;99.90;;;;;;4982298;28;20102;-80
2023/09/30 04:35:00;;;;;;;6.13;2.15;;;14.20;99.90;;;;;;4975525;28;20054;-79
2023/09/30 04:37:25;;;;;;;4.28;1.95;;;14.20;99.90;;;;;;4986038;28;20070;-80
2023/09/30 04:39:53;;;;;;;4.70;1.95;;;14.10;99.90;;;;;;4976591;28;20407;-80
2023/09/30 04:42:19;;;;;;;4.63;1.88;;;14.10;99.90;;;;;;4983659;28;20483;-80
2023/09/30 04:45:07;;;;;;;4.15;2.10;;;14.10;99.90;;;;;;4977002;28;20541;-80
2023/09/30 04:47:33;;;;;;;4.07;2.17;;;14.10;99.90;;;;;;4976579;28;20050;-79
2023/09/30 04:49:59;;;;;;;4.07;1.98;;;14.00;99.90;;;;;;4980773;28;20122;-81
2023/09/30 04:52:27;;;;;;;4.00;2.30;;;14.00;99.90;;;;;;4981630;28;20062;-80
2023/09/30 04:54:53;;;;;;;5.75;2.38;;;14.00;99.90;;;;;;4979398;28;20045;-79
2023/09/30 04:57:20;;;;;;;4.10;1.63;;;14.00;99.90;;;;;;4978992;28;20039;-79
2023/09/30 04:59:46;;;;;;;3.17;1.80;;;14.00;99.90;;;;;;4979758;28;20035;-79
2023/09/30 05:02:14;;;;;;;3.25;1.70;;;14.00;99.90;;;;;;4974095;28;20050;-78
2023/09/30 05:04:43;;;;;;;6.70;2.10;;;14.00;99.90;;;;;;4955829;28;20043;-79
2023/09/30 05:07:09;;;;;;;4.90;1.67;;;13.90;99.90;;;;;;4976672;28;20150;-79
2023/09/30 05:09:36;;;;;;;3.22;1.95;;;13.90;99.90;;;;;;4957846;28;20070;-80
2023/09/30 05:12:04;;;;;;;4.93;1.98;;;13.90;99.90;;;;;;4978420;28;20126;-81
2023/09/30 05:14:30;;;;;;;5.20;2.05;;;13.90;99.90;;;;;;4975069;28;20031;-80
2023/09/30 05:16:56;;;;;;;7.38;2.00;;;13.90;99.90;;;;;;4971333;28;20041;-82
2023/09/30 05:19:22;;;;;;;3.22;2.00;;;13.90;99.90;;;;;;4971026;28;20123;-82
2023/09/30 05:21:48;;;;;;;3.60;1.65;;;13.90;99.90;;;;;;4972751;28;20071;-79
2023/09/30 05:24:14;;;;;;;4.57;1.83;;;13.90;99.90;;;;;;4955947;28;20577;-81
2023/09/30 05:26:40;;;;;;;3.92;2.13;;;13.90;99.90;;;;;;4959640;28;20121;-83
2023/09/30 05:29:07;;;;;;;4.03;2.10;;;13.80;99.90;;;;;;4971951;28;20047;-80
2023/09/30 05:31:33;;;;;;;3.15;1.50;;;13.80;99.90;;;;;;4970977;28;20038;-83
2023/09/30 05:33:58;;;;;;;2.78;1.73;;;13.80;99.90;;;;;;4973594;28;20494;-81
2023/09/30 05:36:24;;;;;;;2.97;1.88;;;13.90;99.90;;;;;;4976605;28;20042;-80
2023/09/30 05:38:50;;;;;;;8.85;1.83;;;13.90;99.90;;;;;;4976769;28;20039;-79
2023/09/30 05:41:16;;;;;;;2.70;1.80;;;13.90;99.90;;;;;;4979040;28;20034;-82
2023/09/30 05:43:43;;;;;;;5.45;2.25;;;13.90;99.90;;;;;;4977083;28;20027;-81
2023/09/30 05:46:09;;;;;;;3.38;1.75;;;13.90;99.90;;;;;;4974184;28;20483;-82
2023/09/30 05:48:35;;;;;;;3.90;1.73;;;13.90;99.90;;;;;;4972773;28;20043;-81
2023/09/30 05:51:01;;;;;;;3.95;1.70;;;13.90;99.90;;;;;;4975044;28;20035;-81
2023/09/30 05:53:28;;;;;;;4.40;1.58;;;13.90;99.90;;;;;;4974743;28;20137;-80
2023/09/30 05:55:54;;;;;;;4.05;1.63;;;13.90;99.90;;;;;;4975619;28;20035;-79
2023/09/30 05:58:20;;;;;;;4.10;1.80;;;13.90;99.90;;;;;;4975373;28;20039;-81
2023/09/30 06:00:46;;;;;;;3.25;1.52;;;13.90;99.90;;;;;;4976344;28;20110;-82
2023/09/30 06:03:12;;;;;;;2.22;1.38;;;13.90;99.90;;;;;;4977467;28;20058;-79
2023/09/30 06:05:41;;;;;;;4.60;1.60;;;14.00;99.90;;;;;;4981121;28;20034;-80
2023/09/30 06:08:10;;;;;;;4.18;1.70;;;14.00;99.90;;;;;;4978788;28;20038;-80
2023/09/30 06:10:38;;;;;;;3.55;1.83;;;14.00;99.90;;;;;;4974510;28;20054;-80
2023/09/30 06:13:04;;;;;;;4.32;1.90;;;13.90;99.90;;;;;;4974826;28;20043;-80
2023/09/30 06:15:31;;;;;;;6.40;2.00;;;14.00;99.90;;;;;;4964149;28;20041;-80
2023/09/30 06:17:59;;;;;;;2.15;1.45;;;13.90;99.90;;;;;;4976568;28;20105;-79
2023/09/30 06:20:26;;;;;;;2.72;1.73;;;13.90;99.90;;;;;;4984193;28;20034;-80
2023/09/30 06:22:53;;;;;;;2.53;1.60;;;13.90;99.90;;;;;;4975434;28;20039;-79
2023/09/30 06:25:21;;;;;;;6.22;2.10;;;13.90;99.90;;;;;;4976833;28;20499;-79
2023/09/30 06:27:48;;;;;;;4.20;1.92;;;13.90;99.90;;;;;;4976492;28;20039;-80
2023/09/30 06:30:19;;;;;;;6.38;1.65;;;13.90;99.90;;;;;;4978253;28;20034;-79
2023/09/30 06:32:45;;;;;;;6.32;2.38;;;13.90;99.90;;;;;;4983377;28;20031;-79
2023/09/30 06:35:11;;;;;;;5.22;2.35;;;13.80;99.90;;;;;;4962094;28;20066;-78
2023/09/30 06:37:38;;;;;;;3.65;2.00;;;13.80;99.90;;;;;;4972476;28;20027;-80
2023/09/30 06:40:12;;;;;;;3.28;2.03;;;13.80;99.90;;;;;;4977348;28;20086;-79
2023/09/30 06:42:39;;;;;;;3.80;2.00;;;13.80;99.90;;;;;;4975827;28;20037;-80
2023/09/30 06:45:06;;;;;;;3.58;1.85;;;13.80;99.90;;;;;;4981091;28;20042;-80
2023/09/30 06:47:37;;;;;;;4.43;1.88;;;13.70;99.90;;;;;;4964061;28;20045;-80
2023/09/30 06:50:07;;;;;;;5.45;2.00;;;13.80;99.90;;;;;;4977199;28;20030;-81
2023/09/30 06:52:45;;;;;;;5.05;2.13;;;13.80;99.90;;;;;;4981208;28;20030;-80
2023/09/30 06:55:13;;;;;;;3.50;2.00;;;13.80;99.90;;;;;;4985213;28;20055;-80
2023/09/30 06:57:43;;;;;;;3.30;2.05;;;13.80;99.90;;;;;;4980866;28;20109;-81
2023/09/30 07:00:11;;;;;;;6.22;3.22;;;13.80;99.90;;;;;;4983049;28;20030;-80
2023/09/30 07:02:38;;;;;;;5.20;2.00;;;13.80;99.90;;;;;;4985775;28;20510;-80
2023/09/30 07:05:12;;;;;;;5.00;2.20;;;13.80;99.90;;;;;;4947647;28;20507;-79
2023/09/30 07:07:39;;;;;;;3.65;2.35;;;13.80;99.90;;;;;;4982567;28;20065;-79
2023/09/30 07:10:06;;;;;;;3.42;1.80;;;13.90;99.90;;;;;;4986448;28;20328;-79
2023/09/30 07:12:35;;;;;;;3.35;1.75;;;13.90;99.90;;;;;;4987081;28;20031;-79
2023/09/30 07:15:08;;;;;;;4.65;2.33;;;13.90;99.90;;;;;;4981824;28;21428;-79
2023/09/30 07:17:34;;;;;;;3.65;1.85;;;13.90;99.90;;;;;;4981822;28;20026;-78
2023/09/30 07:20:04;;;;;;;5.03;2.00;;;13.90;99.90;;;;;;4958863;28;20766;-79
2023/09/30 07:22:31;;;;;;;4.57;2.08;;;13.90;99.90;;;;;;4983359;28;20102;-78
2023/09/30 07:24:57;;;;;;;4.40;1.90;;;14.00;99.90;;;;;;4978519;28;20447;-80
2023/09/30 07:27:24;;;;;;;4.50;1.95;;;14.00;99.90;;;;;;4984420;28;20039;-79
2023/09/30 07:29:50;;;;;;;4.75;1.98;;;14.00;99.90;;;;;;4980938;28;20042;-79
2023/09/30 07:32:16;;;;;;;5.30;1.95;;;14.10;99.90;;;;;;4983129;28;20522;-79
2023/09/30 07:34:42;;;;;;;3.90;1.88;;;14.10;99.90;;;;;;4986048;28;20035;-78
2023/09/30 07:37:09;;;;;;;4.38;2.00;;;14.10;99.90;;;;;;4982387;28;20644;-79
2023/09/30 07:39:35;;;;;;;4.15;1.90;;;14.20;99.90;;;;;;4988250;28;20580;-78
2023/09/30 07:42:01;;;;;;;3.50;1.77;;;14.20;99.90;;;;;;4983110;28;20042;-79
2023/09/30 07:44:27;;;;;;;4.10;1.60;;;14.30;99.90;;;;;;4974581;28;20263;-80
2023/09/30 07:46:53;;;;;;;4.57;2.80;;;14.30;99.90;;;;;;4971583;28;20039;-81
2023/09/30 07:49:19;;;;;;;3.85;1.98;;;14.30;99.90;;;;;;4973315;28;20031;-79
2023/09/30 07:51:46;;;;;;;5.38;2.50;;;14.40;99.90;;;;;;4971871;28;20038;-80
2023/09/30 07:54:12;;;;;;;3.83;2.10;;;14.50;99.90;;;;;;4975012;28;20113;-80
2023/09/30 07:56:38;;;;;;;5.38;2.45;;;14.50;99.90;;;;;;4970457;28;20502;-78
2023/09/30 07:59:05;;;;;;;3.47;2.20;;;14.60;99.90;;;;;;4981457;28;20030;-79
2023/09/30 08:01:31;;;;;;;3.65;2.10;;;14.50;99.90;;;;;;4976222;28;20030;-79
2023/09/30 08:03:57;;;;;;;4.50;1.77;;;14.60;99.90;;;;;;4980611;28;20078;-78
2023/09/30 08:06:23;;;;;;;3.45;2.13;;;14.60;99.90;;;;;;4973468;28;20047;-78
2023/09/30 08:08:49;;;;;;;4.68;2.10;;;14.60;99.90;;;;;;4965951;28;20042;-78
2023/09/30 08:11:17;;;;;;;5.47;1.77;;;14.70;99.90;;;;;;4970036;28;20058;-78
2023/09/30 08:13:43;;;;;;;3.10;2.20;;;14.70;99.90;;;;;;4980522;28;20027;-79
2023/09/30 08:16:08;;;;;;;3.63;1.70;;;14.80;99.90;;;;;;4976012;28;20041;-78
2023/09/30 08:18:34;;;;;;;4.95;2.00;;;14.90;99.90;;;;;;4969086;28;20027;-80
2023/09/30 08:21:00;;;;;;;2.33;1.85;;;15.10;99.90;;;;;;4976877;28;20460;-80
2023/09/30 08:23:26;;;;;;;3.40;1.90;;;15.10;99.90;;;;;;4976693;28;20062;-78
2023/09/30 08:25:52;;;;;;;3.35;2.05;;;15.20;99.90;;;;;;4982925;28;20125;-80
2023/09/30 08:28:18;;;;;;;3.85;2.50;;;15.20;99.90;;;;;;4974359;28;20161;-79
2023/09/30 08:30:44;;;;;;;5.50;2.72;;;15.20;99.90;;;;;;4976902;28;20026;-80
2023/09/30 08:33:10;;;;;;;4.22;2.38;;;15.20;99.90;;;;;;4984015;28;20065;-80
2023/09/30 08:35:38;;;;;;;4.88;1.90;;;15.20;99.90;;;;;;4981477;28;20125;-78
2023/09/30 08:38:04;;;;;;;4.18;1.98;;;15.20;99.90;;;;;;4981743;28;20118;-79
2023/09/30 08:40:30;;;;;;;7.68;2.03;;;15.20;99.90;;;;;;4978549;28;20040;-80
2023/09/30 08:42:56;;;;;;;5.47;2.95;;;15.30;99.90;;;;;;4981695;28;20040;-80
2023/09/30 08:45:21;;;;;;;5.60;2.28;;;15.40;99.90;;;;;;4977835;28;20062;-79
2023/09/30 08:47:47;;;;;;;5.72;2.80;;;15.40;99.90;;;;;;4983343;28;20097;-79
2023/09/30 08:50:17;;;;;;;4.15;2.00;;;15.40;99.90;;;;;;4979127;28;20042;-79
2023/09/30 08:52:44;;;;;;;6.15;2.20;;;15.50;99.90;;;;;;4966485;28;20043;-80
2023/09/30 08:55:13;;;;;;;4.63;2.10;;;15.50;99.90;;;;;;4986011;28;20034;-80
2023/09/30 08:57:41;;;;;;;3.80;2.20;;;15.50;99.90;;;;;;4981731;28;20038;-80
2023/09/30 09:00:12;;;;;;;8.85;2.50;;;15.50;99.90;;;;;;4976764;28;20115;-80
2023/09/30 09:02:39;;;;;;;4.10;2.10;;;15.60;99.90;;;;;;4973783;28;20069;-79
2023/09/30 09:05:06;;;;;;;3.00;2.00;;;15.60;99.90;;;;;;4975279;28;20039;-79
2023/09/30 09:07:33;;;;;;;6.75;2.17;;;15.70;99.90;;;;;;4964960;28;20035;-79
2023/09/30 09:10:10;;;;;;;4.53;2.20;;;15.60;99.90;;;;;;4976266;28;20275;-80
2023/09/30 09:12:40;;;;;;;3.72;2.00;;;15.60;99.90;;;;;;4981460;28;20038;-80
2023/09/30 09:15:08;;;;;;;3.50;2.10;;;15.70;99.90;;;;;;4985994;28;20039;-79
2023/09/30 09:17:44;;;;;;;4.32;2.33;;;15.70;99.90;;;;;;4961608;28;20043;-80
2023/09/30 09:20:17;;;;;;;3.83;2.35;;;15.80;99.90;;;;;;4978139;28;20033;-79
2023/09/30 09:22:44;;;;;;;6.22;2.45;;;15.90;99.90;;;;;;4981313;28;20794;-80
2023/09/30 09:25:10;;;;;;;8.27;2.72;;;15.90;99.90;;;;;;4981605;28;20097;-79
2023/09/30 09:27:37;;;;;;;6.50;2.80;;;15.90;99.90;;;;;;4975457;28;20798;-80
2023/09/30 09:30:20;;;;;;;5.38;2.97;;;15.90;99.90;;;;;;4955504;28;20504;-80
2023/09/30 09:33:00;;;;;;;6.57;2.60;;;16.10;99.90;;;;;;4975008;28;20046;-80
2023/09/30 09:35:30;;;;;;;6.03;2.47;;;16.10;99.90;;;;;;4971835;28;20656;-80
2023/09/30 09:38:03;;;;;;;4.22;2.75;;;16.20;99.90;;;;;;4969490;28;20453;-80
2023/09/30 09:40:38;;;;;;;5.10;2.97;;;16.20;99.90;;;;;;4971125;28;21741;-79
2023/09/30 09:43:05;;;;;;;;;;;16.30;99.90;;;;;;4974960;28;20046;-78
2023/09/30 09:45:34;;;;;;;5.95;2.55;;;16.30;99.90;;;;;;4971264;28;19910;-79
2023/09/30 09:48:00;;;;;;;5.78;2.30;;;16.30;99.90;;;;;;4969793;28;20113;-79
2023/09/30 09:50:26;;;;;;;5.10;2.60;;;16.30;99.90;;;;;;4975078;28;20065;-79
2023/09/30 09:52:55;;;;;;;5.65;2.03;;;16.30;99.90;;;;;;4963458;28;20731;-77
2023/09/30 09:55:23;;;;;;;7.47;2.50;;;16.30;99.90;;;;;;4973774;28;20035;-79
2023/09/30 09:57:50;;;;;;;4.18;2.05;;;16.30;99.90;;;;;;4975555;28;20027;-80
2023/09/30 10:00:19;;;;;;;2.47;1.98;;;16.40;99.90;;;;;;4975990;28;20105;-79
2023/09/30 10:02:46;;;;;;;2.75;1.98;;;16.50;99.90;;;;;;4973650;28;20086;-80
2023/09/30 10:05:16;;;;;;;4.15;1.80;;;16.60;99.90;;;;;;4974236;28;20038;-79
2023/09/30 10:07:57;;;;;;;4.05;2.10;;;16.70;99.90;;;;;;4982839;28;20034;-79
2023/09/30 10:10:25;;;;;;;4.47;1.80;;;16.80;99.90;;;;;;4976637;28;20039;-78
2023/09/30 10:12:51;;;;;;;2.72;1.70;;;16.80;99.90;;;;;;4973275;28;20034;-80
2023/09/30 10:15:37;;;;;;;2.55;1.35;;;16.90;99.90;;;;;;4976451;28;20038;-79
2023/09/30 10:18:11;;;;;;;2.92;1.40;;;16.90;99.90;;;;;;4974303;28;20034;-80
2023/09/30 10:20:41;;;;;;;4.40;1.73;;;16.80;99.90;;;;;;4972502;28;20030;-80
2023/09/30 10:23:26;;;;;;;4.43;1.90;;;16.80;99.90;;;;;;4976284;28;20039;-80
2023/09/30 10:26:15;;;;;;;3.40;1.52;;;16.90;99.90;;;;;;4979358;28;20467;-81
2023/09/30 10:28:44;;;;;;;4.65;2.10;;;17.00;99.90;;;;;;4983390;28;20054;-79
2023/09/30 10:31:30;;;;;;;3.08;1.60;;;16.90;99.90;;;;;;4978343;28;20054;-81
2023/09/30 10:34:05;;;;;;;3.70;1.92;;;16.90;99.90;;;;;;4974127;28;20102;-80
2023/09/30 10:36:32;;;;;;;4.77;1.67;;;17.10;99.90;;;;;;4974925;28;20443;-80
2023/09/30 10:38:59;;;;;;;3.00;1.70;;;17.20;99.90;;;;;;4980333;28;20046;-82
2023/09/30 10:41:47;;;;;;;4.43;1.90;;;17.30;99.90;;;;;;4979088;28;20054;-81
2023/09/30 10:44:29;;;;;;;3.42;1.70;;;17.40;99.90;;;;;;4974351;28;20037;-81
2023/09/30 10:47:00;;;;;;;4.30;1.45;;;17.30;99.90;;;;;;4974154;28;20034;-81
2023/09/30 10:49:26;;;;;;;2.30;1.48;;;17.20;99.90;;;;;;4982889;28;20034;-78
2023/09/30 10:51:56;;;;;;;6.30;1.75;;;17.10;99.90;;;;;;4983639;28;20094;-78
2023/09/30 10:54:40;;;;;;;2.83;1.38;;;17.00;99.90;;;;;;4977960;28;20098;-79
2023/09/30 10:57:06;;;;;;;2.72;1.75;;;17.00;99.90;;;;;;4983223;28;20031;-79
2023/09/30 10:59:34;;;;;;;4.50;2.40;;;17.00;99.90;;;;;;4982744;28;20089;-78
2023/09/30 11:02:01;;;;;;;3.92;1.60;;;17.00;99.90;;;;;;4978668;28;20038;-78
2023/09/30 11:04:28;;;;;;;2.78;1.40;;;17.10;99.90;;;;;;4973646;28;20053;-78
2023/09/30 11:06:54;;;;;;;2.63;1.35;;;17.10;99.90;;;;;;4982078;28;20085;-78
2023/09/30 11:09:21;;;;;;;4.50;1.80;;;17.10;99.90;;;;;;4980561;28;20058;-79
2023/09/30 11:11:52;;;;;;;2.83;1.23;;;17.10;99.90;;;;;;4979214;28;20062;-79
2023/09/30 11:14:33;;;;;;;3.88;1.58;;;17.10;99.90;;;;;;4962817;28;20419;-79
2023/09/30 11:17:01;;;;;;;3.00;1.88;;;17.10;99.90;;;;;;4982169;28;20057;-78
2023/09/30 11:19:47;;;;;;;2.55;1.50;;;17.00;99.90;;;;;;4983358;28;20098;-78
2023/09/30 11:22:14;;;;;;;3.35;1.10;;;17.00;99.90;;;;;;4976025;28;20037;-78
2023/09/30 11:24:40;;;;;;;5.45;1.50;;;16.90;99.90;;;;;;4983601;28;20031;-79
2023/09/30 11:27:05;;;;;;;2.50;1.65;;;16.90;99.90;;;;;;4980349;28;20049;-78
2023/09/30 11:29:32;;;;;;;2.85;1.63;;;17.00;99.90;;;;;;4977535;28;20049;-77
2023/09/30 11:31:58;;;;;;;7.13;1.95;;;17.00;99.90;;;;;;4964070;28;20040;-78
2023/09/30 11:34:37;;;;;;;3.80;1.90;;;17.20;99.90;;;;;;4981207;28;20040;-78
2023/09/30 11:37:04;;;;;;;4.78;2.00;;;17.30;99.90;;;;;;4980272;28;20515;-78
2023/09/30 11:39:31;;;;;;;5.13;1.77;;;17.50;99.90;;;;;;4975002;28;20411;-78
2023/09/30 11:41:57;;;;;;;5.78;1.90;;;17.70;99.90;;;;;;4981190;28;20058;-77
2023/09/30 11:44:27;;;;;;;3.45;1.70;;;17.90;99.90;;;;;;4966033;28;20038;-78
2023/09/30 11:47:05;;;;;;;2.75;1.55;;;18.00;99.90;;;;;;4978478;28;20085;-77
2023/09/30 11:49:34;;;;;;;4.78;1.58;;;18.10;99.90;;;;;;4951397;28;20038;-78
2023/09/30 11:52:09;;;;;;;5.65;2.10;;;18.20;99.90;;;;;;4975311;28;20034;-78
2023/09/30 11:54:46;;;;;;;3.27;1.60;;;18.30;99.90;;;;;;4974700;28;20026;-78
2023/09/30 11:57:18;;;;;;;3.28;1.98;;;18.40;99.90;;;;;;4972770;28;20027;-78
2023/09/30 11:59:47;;;;;;;4.78;2.60;;;18.60;99.90;;;;;;4978602;28;20500;-78
2023/09/30 12:02:17;;;;;;;3.95;1.98;;;18.60;99.90;;;;;;4978530;28;20031;-78
2023/09/30 12:04:44;;;;;;;4.15;1.90;;;18.60;99.90;;;;;;4973252;28;20484;-78
2023/09/30 12:07:09;;;;;;;4.63;2.22;;;18.60;99.90;;;;;;4976545;28;20046;-78
2023/09/30 12:09:37;;;;;;;3.90;1.88;;;18.60;99.90;;;;;;4978342;28;20646;-78
2023/09/30 12:12:03;;;;;;;2.90;1.80;;;18.70;99.90;;;;;;4975462;28;20038;-78
2023/09/30 12:14:31;;;;;;;2.92;1.45;;;18.70;99.90;;;;;;4974960;28;20069;-77
2023/09/30 12:16:57;;;;;;;7.57;1.90;;;18.80;99.90;;;;;;4978306;28;20041;-78
2023/09/30 12:19:24;;;;;;;3.70;1.60;;;18.60;99.90;;;;;;4975902;28;20019;-78
2023/09/30 12:21:50;;;;;;;2.63;1.45;;;18.60;99.90;;;;;;4977764;28;20030;-78
2023/09/30 12:24:17;;;;;;;2.45;1.85;;;18.60;99.90;;;;;;4975237;28;20133;-78
2023/09/30 12:26:49;;;;;;;3.97;1.58;;;18.60;99.90;;;;;;4972853;28;20031;-79
2023/09/30 12:29:18;;;;;;;4.75;1.38;;;18.60;99.90;;;;;;4973020;28;20062;-80
2023/09/30 12:31:45;;;;;;;4.47;1.75;;;18.60;99.90;;;;;;4975222;28;20038;-80
2023/09/30 12:34:11;;;;;;;3.53;1.83;;;18.70;99.90;;;;;;4972601;28;20023;-79
2023/09/30 12:36:38;;;;;;;2.70;1.65;;;18.60;99.90;;;;;;4979379;28;20023;-80
2023/09/30 12:39:10;;;;;;;3.47;2.08;;;18.60;99.90;;;;;;4976333;28;20037;-78
2023/09/30 12:41:42;;;;;;;3.88;1.80;;;18.50;99.90;;;;;;4970863;28;20065;-79
2023/09/30 12:44:09;;;;;;;6.40;1.98;;;18.40;99.90;;;;;;4968097;28;20039;-80
2023/09/30 12:46:36;;;;;;;2.47;1.60;;;18.40;99.90;;;;;;4976700;28;20039;-79
2023/09/30 12:49:06;;;;;;;3.95;2.05;;;18.40;99.90;;;;;;4974613;28;20038;-79
2023/09/30 12:51:33;;;;;;;3.38;1.52;;;18.50;99.90;;;;;;4973294;28;20065;-79